sensor_id;sensor_type;location;lat;lon;timestamp;pressure;altitude;pressure_sealevel;temperature;humidity
79481;BME280;68944;48.262;14.208;2023-09-19T00:01:43;98007.38;;;16.70;100.00
79481;BME280;68944;48.262;14.208;2023-09-19T00:04:12;98004.19;;;16.74;100.00
79481;BME280;68944;48.262;14.208;2023-09-19T00:06:38;98005.75;;;16.69;100.00
79481;BME280;68944;48.262;14.208;2023-09-19T00:09:04;98010.06;;;16.70;100.00
79481;BME280;68944;48.262;14.208;2023-09-19T00:11:30;98012.19;;;16.68;100.00
79481;BME280;68944;48.262;14.208;2023-09-19T00:13:56;98006.56;;;16.65;100.00
79481;BME280;68944;48.262;14.208;2023-09-19T00:16:24;97999.88;;;16.46;100.00
79481;BME280;68944;48.262;14.208;2023-09-19T00:18:51;98005.50;;;16.45;100.00
79481;BME280;68944;48.262;14.208;2023-09-19T00:21:16;98006.84;;;16.63;100.00
79481;BME280;68944;48.262;14.208;2023-09-19T00:23:42;98020.19;;;16.32;100.00
79481;BME280;68944;48.262;14.208;2023-09-19T00:26:07;98017.72;;;16.09;100.00
79481;BME280;68944;48.262;14.208;2023-09-19T00:28:33;98018.25;;;16.06;100.00
79481;BME280;68944;48.262;14.208;2023-09-19T00:30:59;98017.41;;;16.00;100.00
79481;BME280;68944;48.262;14.208;2023-09-19T00:33:27;98020.72;;;16.18;100.00
79481;BME280;68944;48.262;14.208;2023-09-19T00:35:56;98024.97;;;16.19;100.00
79481;BME280;68944;48.262;14.208;2023-09-19T00:38:22;98030.50;;;15.97;100.00
79481;BME280;68944;48.262;14.208;2023-09-19T00:40:52;98030.75;;;16.00;100.00
79481;BME280;68944;48.262;14.208;2023-09-19T00:43:18;98041.13;;;15.86;100.00
79481;BME280;68944;48.262;14.208;2023-09-19T00:45:45;98033.94;;;15.87;100.00
79481;BME280;68944;48.262;14.208;2023-09-19T00:48:14;98037.69;;;15.91;100.00
79481;BME280;68944;48.262;14.208;2023-09-19T00:50:45;98040.09;;;15.92;100.00
79481;BME280;68944;48.262;14.208;2023-09-19T00:53:15;98031.56;;;16.01;100.00
79481;BME280;68944;48.262;14.208;2023-09-19T00:55:44;98032.63;;;16.00;100.00
79481;BME280;68944;48.262;14.208;2023-09-19T00:58:10;98032.09;;;16.03;100.00
79481;BME280;68944;48.262;14.208;2023-09-19T01:00:37;98035.91;;;16.12;100.00
79481;BME280;68944;48.262;14.208;2023-09-19T01:03:03;98037.81;;;16.22;100.00
79481;BME280;68944;48.262;14.208;2023-09-19T01:05:29;98035.66;;;16.19;100.00
79481;BME280;68944;48.262;14.208;2023-09-19T01:07:55;98029.53;;;16.29;100.00
79481;BME280;68944;48.262;14.208;2023-09-19T01:10:21;98026.59;;;16.46;100.00
79481;BME280;68944;48.262;14.208;2023-09-19T01:15:28;98023.41;;;16.34;100.00
79481;BME280;68944;48.262;14.208;2023-09-19T01:23:29;98026.03;;;16.23;100.00
79481;BME280;68944;48.262;14.208;2023-09-19T01:28:56;98028.97;;;16.17;100.00
79481;BME280;68944;48.262;14.208;2023-09-19T01:31:31;98031.94;;;16.20;100.00
79481;BME280;68944;48.262;14.208;2023-09-19T01:34:00;98039.91;;;16.10;100.00
79481;BME280;68944;48.262;14.208;2023-09-19T01:36:28;98025.00;;;16.30;100.00
79481;BME280;68944;48.262;14.208;2023-09-19T01:38:55;98014.28;;;16.35;100.00
79481;BME280;68944;48.262;14.208;2023-09-19T01:41:30;98018.06;;;16.44;100.00
79481;BME280;68944;48.262;14.208;2023-09-19T01:43:59;98018.56;;;16.25;100.00
79481;BME280;68944;48.262;14.208;2023-09-19T01:46:39;98012.69;;;16.18;100.00
79481;BME280;68944;48.262;14.208;2023-09-19T01:49:18;98017.78;;;16.25;100.00
79481;BME280;68944;48.262;14.208;2023-09-19T01:52:05;98026.88;;;16.40;100.00
79481;BME280;68944;48.262;14.208;2023-09-19T01:54:41;98023.38;;;16.18;100.00
79481;BME280;68944;48.262;14.208;2023-09-19T01:57:20;98028.38;;;15.99;100.00
79481;BME280;68944;48.262;14.208;2023-09-19T01:59:52;98028.03;;;15.79;100.00
79481;BME280;68944;48.262;14.208;2023-09-19T02:02:21;98033.91;;;15.81;100.00
79481;BME280;68944;48.262;14.208;2023-09-19T02:04:48;98033.94;;;15.92;100.00
79481;BME280;68944;48.262;14.208;2023-09-19T02:07:16;98031.00;;;15.83;100.00
79481;BME280;68944;48.262;14.208;2023-09-19T02:09:42;98021.66;;;15.86;100.00
79481;BME280;68944;48.262;14.208;2023-09-19T02:12:09;98028.31;;;15.88;100.00
79481;BME280;68944;48.262;14.208;2023-09-19T02:14:35;98026.75;;;15.92;100.00
79481;BME280;68944;48.262;14.208;2023-09-19T02:17:03;98028.81;;;15.80;100.00
79481;BME280;68944;48.262;14.208;2023-09-19T02:19:33;98023.72;;;15.73;100.00
79481;BME280;68944;48.262;14.208;2023-09-19T02:22:00;98029.09;;;15.78;100.00
79481;BME280;68944;48.262;14.208;2023-09-19T02:24:28;98037.69;;;15.86;100.00
79481;BME280;68944;48.262;14.208;2023-09-19T02:26:54;98038.47;;;15.86;100.00
79481;BME280;68944;48.262;14.208;2023-09-19T02:29:21;98032.59;;;15.89;100.00
79481;BME280;68944;48.262;14.208;2023-09-19T02:31:47;98026.44;;;15.84;100.00
79481;BME280;68944;48.262;14.208;2023-09-19T02:34:14;98031.22;;;15.76;100.00
79481;BME280;68944;48.262;14.208;2023-09-19T02:36:42;98032.22;;;15.60;100.00
79481;BME280;68944;48.262;14.208;2023-09-19T02:39:09;98035.16;;;15.63;100.00
79481;BME280;68944;48.262;14.208;2023-09-19T02:41:36;98036.25;;;15.67;100.00
79481;BME280;68944;48.262;14.208;2023-09-19T02:44:02;98037.31;;;15.66;100.00
79481;BME280;68944;48.262;14.208;2023-09-19T02:46:28;98037.31;;;15.66;100.00
79481;BME280;68944;48.262;14.208;2023-09-19T02:48:54;98035.47;;;15.67;100.00
79481;BME280;68944;48.262;14.208;2023-09-19T02:51:20;98037.06;;;15.68;100.00
79481;BME280;68944;48.262;14.208;2023-09-19T02:53:46;98031.47;;;15.75;100.00
79481;BME280;68944;48.262;14.208;2023-09-19T02:56:13;98037.59;;;15.70;100.00
79481;BME280;68944;48.262;14.208;2023-09-19T02:58:39;98039.19;;;15.66;100.00
79481;BME280;68944;48.262;14.208;2023-09-19T03:01:10;98035.78;;;15.81;100.00
79481;BME280;68944;48.262;14.208;2023-09-19T03:03:40;98028.84;;;15.85;100.00
79481;BME280;68944;48.262;14.208;2023-09-19T03:06:06;98028.03;;;15.79;100.00
79481;BME280;68944;48.262;14.208;2023-09-19T03:08:35;98024.19;;;15.54;100.00
79481;BME280;68944;48.262;14.208;2023-09-19T03:11:05;98016.47;;;15.63;100.00
79481;BME280;68944;48.262;14.208;2023-09-19T03:13:32;98024.16;;;15.49;100.00
79481;BME280;68944;48.262;14.208;2023-09-19T03:15:58;98026.53;;;15.45;100.00
79481;BME280;68944;48.262;14.208;2023-09-19T03:18:26;98029.56;;;15.60;100.00
79481;BME280;68944;48.262;14.208;2023-09-19T03:20:55;98022.59;;;15.53;100.00
79481;BME280;68944;48.262;14.208;2023-09-19T03:23:22;98025.25;;;15.58;100.00
79481;BME280;68944;48.262;14.208;2023-09-19T03:25:48;98026.63;;;15.66;100.00
79481;BME280;68944;48.262;14.208;2023-09-19T03:28:14;98037.03;;;15.57;100.00
79481;BME280;68944;48.262;14.208;2023-09-19T03:30:41;98033.34;;;15.26;100.00
79481;BME280;68944;48.262;14.208;2023-09-19T03:33:07;98032.63;;;15.35;100.00
79481;BME280;68944;48.262;14.208;2023-09-19T03:35:34;98037.50;;;15.44;100.00
79481;BME280;68944;48.262;14.208;2023-09-19T03:38:01;98037.72;;;15.42;100.00
79481;BME280;68944;48.262;14.208;2023-09-19T03:40:26;98041.16;;;15.32;100.00
79481;BME280;68944;48.262;14.208;2023-09-19T03:42:52;98035.28;;;15.35;100.00
79481;BME280;68944;48.262;14.208;2023-09-19T03:45:17;98035.91;;;15.48;100.00
79481;BME280;68944;48.262;14.208;2023-09-19T03:47:47;98044.91;;;15.37;100.00
79481;BME280;68944;48.262;14.208;2023-09-19T03:50:14;98043.88;;;15.43;100.00
79481;BME280;68944;48.262;14.208;2023-09-19T03:52:43;98046.28;;;15.44;100.00
79481;BME280;68944;48.262;14.208;2023-09-19T03:55:09;98041.28;;;15.53;100.00
79481;BME280;68944;48.262;14.208;2023-09-19T03:57:37;98043.66;;;15.50;100.00
79481;BME280;68944;48.262;14.208;2023-09-19T04:00:03;98035.91;;;15.48;100.00
79481;BME280;68944;48.262;14.208;2023-09-19T04:02:38;98042.25;;;15.42;100.00
79481;BME280;68944;48.262;14.208;2023-09-19T04:05:05;98049.63;;;15.24;100.00
79481;BME280;68944;48.262;14.208;2023-09-19T04:07:31;98049.31;;;15.15;100.00
79481;BME280;68944;48.262;14.208;2023-09-19T04:09:56;98056.47;;;15.09;100.00
79481;BME280;68944;48.262;14.208;2023-09-19T04:12:22;98061.94;;;15.30;100.00
79481;BME280;68944;48.262;14.208;2023-09-19T04:14:47;98061.47;;;15.39;100.00
79481;BME280;68944;48.262;14.208;2023-09-19T04:17:13;98059.63;;;15.44;100.00
79481;BME280;68944;48.262;14.208;2023-09-19T04:19:39;98057.75;;;15.45;100.00
79481;BME280;68944;48.262;14.208;2023-09-19T04:22:06;98057.75;;;15.45;100.00
79481;BME280;68944;48.262;14.208;2023-09-19T04:24:31;98053.19;;;15.40;100.00
79481;BME280;68944;48.262;14.208;2023-09-19T04:26:58;98063.59;;;15.42;100.00
79481;BME280;68944;48.262;14.208;2023-09-19T04:29:24;98059.88;;;15.43;100.00
79481;BME280;68944;48.262;14.208;2023-09-19T04:31:52;98068.16;;;15.41;100.00
79481;BME280;68944;48.262;14.208;2023-09-19T04:34:17;98070.59;;;15.48;100.00
79481;BME280;68944;48.262;14.208;2023-09-19T04:36:43;98074.28;;;15.42;100.00
79481;BME280;68944;48.262;14.208;2023-09-19T04:39:09;98079.38;;;15.43;100.00
79481;BME280;68944;48.262;14.208;2023-09-19T04:41:36;98077.75;;;15.42;100.00
79481;BME280;68944;48.262;14.208;2023-09-19T04:44:05;98098.56;;;15.40;100.00
79481;BME280;68944;48.262;14.208;2023-09-19T04:46:30;98094.31;;;15.44;100.00
79481;BME280;68944;48.262;14.208;2023-09-19T04:48:56;98094.84;;;15.41;100.00
79481;BME280;68944;48.262;14.208;2023-09-19T04:51:21;98097.22;;;15.32;100.00
79481;BME280;68944;48.262;14.208;2023-09-19T04:53:47;98103.91;;;15.40;100.00
79481;BME280;68944;48.262;14.208;2023-09-19T04:56:13;98108.47;;;15.45;100.00
79481;BME280;68944;48.262;14.208;2023-09-19T04:58:38;98112.69;;;15.35;100.00
79481;BME280;68944;48.262;14.208;2023-09-19T05:01:04;98108.72;;;15.38;100.00
79481;BME280;68944;48.262;14.208;2023-09-19T05:03:30;98115.63;;;15.34;100.00
79481;BME280;68944;48.262;14.208;2023-09-19T05:05:55;98120.66;;;15.30;100.00
79481;BME280;68944;48.262;14.208;2023-09-19T05:08:20;98119.88;;;15.30;100.00
79481;BME280;68944;48.262;14.208;2023-09-19T05:10:47;98120.53;;;15.15;100.00
79481;BME280;68944;48.262;14.208;2023-09-19T05:13:14;98121.34;;;15.15;100.00
79481;BME280;68944;48.262;14.208;2023-09-19T05:15:40;98127.53;;;15.21;100.00
79481;BME280;68944;48.262;14.208;2023-09-19T05:18:05;98134.56;;;15.32;100.00
79481;BME280;68944;48.262;14.208;2023-09-19T05:20:31;98128.78;;;15.46;100.00
79481;BME280;68944;48.262;14.208;2023-09-19T05:23:02;98134.19;;;15.56;100.00
79481;BME280;68944;48.262;14.208;2023-09-19T05:25:30;98134.84;;;15.36;100.00
79481;BME280;68944;48.262;14.208;2023-09-19T05:27:57;98132.50;;;15.45;100.00
79481;BME280;68944;48.262;14.208;2023-09-19T05:30:23;98142.38;;;15.44;100.00
79481;BME280;68944;48.262;14.208;2023-09-19T05:32:49;98146.84;;;15.33;100.00
79481;BME280;68944;48.262;14.208;2023-09-19T05:35:15;98152.81;;;15.13;100.00
79481;BME280;68944;48.262;14.208;2023-09-19T05:37:41;98155.94;;;15.32;100.00
79481;BME280;68944;48.262;14.208;2023-09-19T05:40:07;98157.41;;;15.18;100.00
79481;BME280;68944;48.262;14.208;2023-09-19T05:42:38;98153.50;;;15.31;100.00
79481;BME280;68944;48.262;14.208;2023-09-19T05:45:05;98157.78;;;15.32;100.00
79481;BME280;68944;48.262;14.208;2023-09-19T05:47:32;98163.34;;;15.30;100.00
79481;BME280;68944;48.262;14.208;2023-09-19T05:49:57;98167.69;;;15.37;100.00
79481;BME280;68944;48.262;14.208;2023-09-19T05:52:24;98166.75;;;15.53;100.00
79481;BME280;68944;48.262;14.208;2023-09-19T05:54:49;98163.28;;;15.58;100.00
79481;BME280;68944;48.262;14.208;2023-09-19T05:57:16;98175.88;;;15.63;100.00
79481;BME280;68944;48.262;14.208;2023-09-19T05:59:41;98175.41;;;15.71;100.00
79481;BME280;68944;48.262;14.208;2023-09-19T06:02:08;98172.97;;;15.64;100.00
79481;BME280;68944;48.262;14.208;2023-09-19T06:04:35;98172.34;;;15.52;100.00
79481;BME280;68944;48.262;14.208;2023-09-19T06:07:01;98175.22;;;15.45;100.00
79481;BME280;68944;48.262;14.208;2023-09-19T06:09:31;98176.06;;;15.51;100.00
79481;BME280;68944;48.262;14.208;2023-09-19T06:11:57;98177.94;;;15.50;100.00
79481;BME280;68944;48.262;14.208;2023-09-19T06:14:23;98177.44;;;15.58;100.00
79481;BME280;68944;48.262;14.208;2023-09-19T06:16:50;98182.03;;;15.63;100.00
79481;BME280;68944;48.262;14.208;2023-09-19T06:19:15;98183.34;;;15.61;100.00
79481;BME280;68944;48.262;14.208;2023-09-19T06:21:41;98188.75;;;15.71;100.00
79481;BME280;68944;48.262;14.208;2023-09-19T06:24:06;98183.41;;;15.71;100.00
79481;BME280;68944;48.262;14.208;2023-09-19T06:26:32;98182.88;;;15.69;100.00
79481;BME280;68944;48.262;14.208;2023-09-19T06:28:57;98182.66;;;15.76;100.00
79481;BME280;68944;48.262;14.208;2023-09-19T06:31:25;98187.28;;;15.91;100.00
79481;BME280;68944;48.262;14.208;2023-09-19T06:33:52;98191.84;;;15.96;100.00
79481;BME280;68944;48.262;14.208;2023-09-19T06:36:17;98184.16;;;16.04;100.00
79481;BME280;68944;48.262;14.208;2023-09-19T06:38:44;98182.34;;;16.10;100.00
79481;BME280;68944;48.262;14.208;2023-09-19T06:41:10;98187.47;;;16.22;100.00
79481;BME280;68944;48.262;14.208;2023-09-19T06:43:37;98196.91;;;16.41;100.00
79481;BME280;68944;48.262;14.208;2023-09-19T06:46:02;98195.06;;;16.52;100.00
79481;BME280;68944;48.262;14.208;2023-09-19T06:48:29;98198.59;;;16.57;100.00
79481;BME280;68944;48.262;14.208;2023-09-19T06:50:58;98197.53;;;16.74;100.00
79481;BME280;68944;48.262;14.208;2023-09-19T06:53:32;98206.97;;;16.98;100.00
79481;BME280;68944;48.262;14.208;2023-09-19T06:56:00;98198.09;;;16.76;100.00
79481;BME280;68944;48.262;14.208;2023-09-19T06:58:25;98202.09;;;16.79;100.00
79481;BME280;68944;48.262;14.208;2023-09-19T07:00:51;98209.63;;;16.87;100.00
79481;BME280;68944;48.262;14.208;2023-09-19T07:03:16;98209.66;;;16.98;100.00
79481;BME280;68944;48.262;14.208;2023-09-19T07:05:48;98210.97;;;16.95;100.00
79481;BME280;68944;48.262;14.208;2023-09-19T07:08:13;98215.78;;;16.82;100.00
79481;BME280;68944;48.262;14.208;2023-09-19T07:10:40;98216.28;;;16.69;100.00
79481;BME280;68944;48.262;14.208;2023-09-19T07:13:07;98229.41;;;16.76;100.00
79481;BME280;68944;48.262;14.208;2023-09-19T07:15:37;98220.03;;;16.83;100.00
79481;BME280;68944;48.262;14.208;2023-09-19T07:18:12;98220.06;;;16.78;100.00
79481;BME280;68944;48.262;14.208;2023-09-19T07:20:40;98219.78;;;16.80;100.00
79481;BME280;68944;48.262;14.208;2023-09-19T07:23:11;98220.59;;;16.80;100.00
79481;BME280;68944;48.262;14.208;2023-09-19T07:25:40;98220.34;;;16.87;100.00
79481;BME280;68944;48.262;14.208;2023-09-19T07:28:06;98226.50;;;16.93;100.00
79481;BME280;68944;48.262;14.208;2023-09-19T07:30:31;98234.25;;;17.00;100.00
79481;BME280;68944;48.262;14.208;2023-09-19T07:32:57;98237.47;;;17.02;100.00
79481;BME280;68944;48.262;14.208;2023-09-19T07:35:23;98243.97;;;17.22;100.00
79481;BME280;68944;48.262;14.208;2023-09-19T07:37:49;98246.94;;;17.36;100.00
79481;BME280;68944;48.262;14.208;2023-09-19T07:40:18;98249.88;;;17.29;100.00
79481;BME280;68944;48.262;14.208;2023-09-19T07:42:45;98254.44;;;17.28;100.00
79481;BME280;68944;48.262;14.208;2023-09-19T07:45:12;98260.53;;;17.08;100.00
79481;BME280;68944;48.262;14.208;2023-09-19T07:47:49;98268.59;;;17.19;100.00
79481;BME280;68944;48.262;14.208;2023-09-19T07:50:17;98275.31;;;17.26;100.00
79481;BME280;68944;48.262;14.208;2023-09-19T07:52:44;98269.44;;;17.35;100.00
79481;BME280;68944;48.262;14.208;2023-09-19T07:55:10;98268.09;;;17.37;100.00
79481;BME280;68944;48.262;14.208;2023-09-19T07:57:37;98264.09;;;17.66;100.00
79481;BME280;68944;48.262;14.208;2023-09-19T08:00:03;98271.34;;;17.71;100.00
79481;BME280;68944;48.262;14.208;2023-09-19T08:02:37;98272.69;;;17.73;100.00
79481;BME280;68944;48.262;14.208;2023-09-19T08:05:03;98273.47;;;17.84;100.00
79481;BME280;68944;48.262;14.208;2023-09-19T08:07:32;98270.25;;;17.93;100.00
79481;BME280;68944;48.262;14.208;2023-09-19T08:09:58;98276.13;;;17.95;100.00
79481;BME280;68944;48.262;14.208;2023-09-19T08:12:24;98269.44;;;17.92;100.00
79481;BME280;68944;48.262;14.208;2023-09-19T08:14:50;98276.41;;;17.99;100.00
79481;BME280;68944;48.262;14.208;2023-09-19T08:17:16;98282.31;;;17.90;100.00
79481;BME280;68944;48.262;14.208;2023-09-19T08:19:41;98283.63;;;17.88;100.00
79481;BME280;68944;48.262;14.208;2023-09-19T08:22:10;98289.28;;;17.96;100.00
79481;BME280;68944;48.262;14.208;2023-09-19T08:24:36;98290.06;;;18.02;100.00
79481;BME280;68944;48.262;14.208;2023-09-19T08:27:04;98288.19;;;17.97;100.00
79481;BME280;68944;48.262;14.208;2023-09-19T08:29:31;98296.78;;;18.00;100.00
79481;BME280;68944;48.262;14.208;2023-09-19T08:31:57;98288.47;;;17.85;100.00
79481;BME280;68944;48.262;14.208;2023-09-19T08:34:26;98300.78;;;18.07;100.00
79481;BME280;68944;48.262;14.208;2023-09-19T08:36:52;98297.88;;;18.19;100.00
79481;BME280;68944;48.262;14.208;2023-09-19T08:39:22;98300.81;;;17.92;100.00
79481;BME280;68944;48.262;14.208;2023-09-19T08:41:47;98294.38;;;17.93;100.00
79481;BME280;68944;48.262;14.208;2023-09-19T08:44:13;98297.56;;;17.95;100.00
79481;BME280;68944;48.262;14.208;2023-09-19T08:46:41;98298.66;;;17.83;100.00
79481;BME280;68944;48.262;14.208;2023-09-19T08:49:38;98296.53;;;17.80;100.00
79481;BME280;68944;48.262;14.208;2023-09-19T08:52:41;98299.19;;;17.96;100.00
79481;BME280;68944;48.262;14.208;2023-09-19T08:55:07;98299.72;;;18.03;100.00
79481;BME280;68944;48.262;14.208;2023-09-19T08:57:36;98297.31;;;18.12;100.00
79481;BME280;68944;48.262;14.208;2023-09-19T09:00:07;98295.97;;;18.10;100.00
79481;BME280;68944;48.262;14.208;2023-09-19T09:02:38;98307.22;;;18.17;100.00
79481;BME280;68944;48.262;14.208;2023-09-19T09:05:10;98305.59;;;18.16;100.00
79481;BME280;68944;48.262;14.208;2023-09-19T09:07:37;98300.25;;;18.21;100.00
79481;BME280;68944;48.262;14.208;2023-09-19T09:10:04;98311.50;;;18.28;100.00
79481;BME280;68944;48.262;14.208;2023-09-19T09:12:30;98301.56;;;18.45;100.00
79481;BME280;68944;48.262;14.208;2023-09-19T09:14:56;98303.72;;;18.37;100.00
79481;BME280;68944;48.262;14.208;2023-09-19T09:17:23;98311.44;;;18.60;100.00
79481;BME280;68944;48.262;14.208;2023-09-19T09:19:52;98314.94;;;18.55;100.00
79481;BME280;68944;48.262;14.208;2023-09-19T09:22:18;98311.72;;;18.63;100.00
79481;BME280;68944;48.262;14.208;2023-09-19T09:24:57;98304.94;;;18.82;100.00
79481;BME280;68944;48.262;14.208;2023-09-19T09:27:30;98310.75;;;18.94;100.00
79481;BME280;68944;48.262;14.208;2023-09-19T09:29:58;98305.75;;;18.82;100.00
79481;BME280;68944;48.262;14.208;2023-09-19T09:32:24;98306.16;;;19.05;100.00
79481;BME280;68944;48.262;14.208;2023-09-19T09:34:57;98307.25;;;18.99;100.00
79481;BME280;68944;48.262;14.208;2023-09-19T09:37:24;98307.41;;;19.29;100.00
79481;BME280;68944;48.262;14.208;2023-09-19T09:39:55;98301.47;;;19.32;100.00
79481;BME280;68944;48.262;14.208;2023-09-19T09:42:35;98303.91;;;19.33;100.00
79481;BME280;68944;48.262;14.208;2023-09-19T09:45:20;98303.22;;;19.87;100.00
79481;BME280;68944;48.262;14.208;2023-09-19T09:48:06;98301.97;;;19.80;100.00
79481;BME280;68944;48.262;14.208;2023-09-19T09:50:54;98307.69;;;20.03;100.00
79481;BME280;68944;48.262;14.208;2023-09-19T09:53:27;98296.50;;;20.20;100.00
79481;BME280;68944;48.262;14.208;2023-09-19T09:56:03;98303.53;;;20.16;100.00
79481;BME280;68944;48.262;14.208;2023-09-19T09:58:50;98300.44;;;20.33;100.00
79481;BME280;68944;48.262;14.208;2023-09-19T10:01:19;98293.03;;;20.44;100.00
79481;BME280;68944;48.262;14.208;2023-09-19T10:03:46;98303.97;;;20.28;100.00
79481;BME280;68944;48.262;14.208;2023-09-19T10:06:16;98295.19;;;20.17;100.00
79481;BME280;68944;48.262;14.208;2023-09-19T10:09:01;98291.72;;;20.66;100.00
79481;BME280;68944;48.262;14.208;2023-09-19T10:11:45;98299.13;;;20.79;100.00
79481;BME280;68944;48.262;14.208;2023-09-19T10:14:17;98294.09;;;20.73;100.00
79481;BME280;68944;48.262;14.208;2023-09-19T10:16:49;98301.72;;;21.09;100.00
79481;BME280;68944;48.262;14.208;2023-09-19T10:19:24;98303.19;;;21.21;100.00
79481;BME280;68944;48.262;14.208;2023-09-19T10:21:55;98291.16;;;21.13;100.00
79481;BME280;68944;48.262;14.208;2023-09-19T10:24:22;98290.22;;;20.79;100.00
79481;BME280;68944;48.262;14.208;2023-09-19T10:26:53;98294.41;;;20.66;100.00
79481;BME280;68944;48.262;14.208;2023-09-19T10:29:21;98285.84;;;21.27;100.00
79481;BME280;68944;48.262;14.208;2023-09-19T10:31:52;98292.00;;;21.66;100.00
79481;BME280;68944;48.262;14.208;2023-09-19T10:34:20;98301.72;;;21.09;98.37
79481;BME280;68944;48.262;14.208;2023-09-19T10:36:48;98290.22;;;20.98;99.75
79481;BME280;68944;48.262;14.208;2023-09-19T10:39:16;98306.53;;;20.88;97.34
79481;BME280;68944;48.262;14.208;2023-09-19T10:41:50;98300.94;;;20.84;99.21
79481;BME280;68944;48.262;14.208;2023-09-19T10:44:21;98288.56;;;20.83;96.39
79481;BME280;68944;48.262;14.208;2023-09-19T10:46:47;98289.13;;;20.80;94.90
79481;BME280;68944;48.262;14.208;2023-09-19T10:49:13;98287.81;;;20.77;96.66
79481;BME280;68944;48.262;14.208;2023-09-19T10:51:41;98281.94;;;20.95;97.78
79481;BME280;68944;48.262;14.208;2023-09-19T10:54:12;98289.41;;;21.03;96.47
79481;BME280;68944;48.262;14.208;2023-09-19T10:56:43;98284.69;;;21.14;99.30
79481;BME280;68944;48.262;14.208;2023-09-19T10:59:18;98279.44;;;21.23;97.89
79481;BME280;68944;48.262;14.208;2023-09-19T11:04:37;98267.53;;;21.96;96.33
79481;BME280;68944;48.262;14.208;2023-09-19T11:07:13;98271.94;;;22.06;92.02
79481;BME280;68944;48.262;14.208;2023-09-19T11:09:51;98290.03;;;20.95;99.22
79481;BME280;68944;48.262;14.208;2023-09-19T11:14:55;98278.63;;;21.22;100.00
79481;BME280;68944;48.262;14.208;2023-09-19T11:28:27;98279.22;;;21.19;97.88
79481;BME280;68944;48.262;14.208;2023-09-19T11:30:53;98283.53;;;21.40;100.00
79481;BME280;68944;48.262;14.208;2023-09-19T11:33:27;98290.81;;;21.73;100.00
79481;BME280;68944;48.262;14.208;2023-09-19T11:43:54;98279.72;;;20.77;99.08
79481;BME280;68944;48.262;14.208;2023-09-19T11:49:17;98285.97;;;22.36;98.01
79481;BME280;68944;48.262;14.208;2023-09-19T11:51:50;98278.19;;;22.21;93.97
79481;BME280;68944;48.262;14.208;2023-09-19T11:54:19;98278.03;;;21.98;93.20
79481;BME280;68944;48.262;14.208;2023-09-19T11:56:49;98273.19;;;21.28;95.21
79481;BME280;68944;48.262;14.208;2023-09-19T11:59:28;98275.44;;;21.20;97.14
79481;BME280;68944;48.262;14.208;2023-09-19T12:02:01;98277.53;;;21.43;99.29
79481;BME280;68944;48.262;14.208;2023-09-19T12:07:06;98268.75;;;21.18;100.00
79481;BME280;68944;48.262;14.208;2023-09-19T12:09:39;98284.94;;;20.93;100.00
79481;BME280;68944;48.262;14.208;2023-09-19T12:12:05;98277.81;;;20.58;100.00
79481;BME280;68944;48.262;14.208;2023-09-19T12:14:31;98277.88;;;20.53;100.00
79481;BME280;68944;48.262;14.208;2023-09-19T12:16:57;98271.69;;;20.53;100.00
79481;BME280;68944;48.262;14.208;2023-09-19T12:19:24;98275.44;;;20.76;100.00
79481;BME280;68944;48.262;14.208;2023-09-19T12:21:57;98268.97;;;20.77;100.00
79481;BME280;68944;48.262;14.208;2023-09-19T12:24:24;98259.94;;;20.43;100.00
79481;BME280;68944;48.262;14.208;2023-09-19T12:26:52;98269.81;;;20.53;100.00
79481;BME280;68944;48.262;14.208;2023-09-19T12:29:21;98266.91;;;20.69;100.00
79481;BME280;68944;48.262;14.208;2023-09-19T12:31:55;98263.16;;;20.70;100.00
79481;BME280;68944;48.262;14.208;2023-09-19T12:34:26;98263.09;;;20.95;100.00
79481;BME280;68944;48.262;14.208;2023-09-19T12:37:08;98257.28;;;21.26;96.81
79481;BME280;68944;48.262;14.208;2023-09-19T12:39:44;98262.03;;;21.15;95.50
79481;BME280;68944;48.262;14.208;2023-09-19T12:42:23;98262.38;;;21.47;94.56
79481;BME280;68944;48.262;14.208;2023-09-19T12:44:50;98271.06;;;21.44;95.45
79481;BME280;68944;48.262;14.208;2023-09-19T12:47:23;98268.06;;;21.26;96.68
79481;BME280;68944;48.262;14.208;2023-09-19T12:52:56;98260.78;;;21.79;92.33
79481;BME280;68944;48.262;14.208;2023-09-19T12:55:29;98256.78;;;22.67;90.67
79481;BME280;68944;48.262;14.208;2023-09-19T12:58:07;98254.81;;;23.33;86.54
79481;BME280;68944;48.262;14.208;2023-09-19T13:00:42;98250.97;;;23.71;81.32
79481;BME280;68944;48.262;14.208;2023-09-19T13:05:58;98253.06;;;24.06;75.23
79481;BME280;68944;48.262;14.208;2023-09-19T13:08:30;98255.97;;;24.59;74.70
79481;BME280;68944;48.262;14.208;2023-09-19T13:11:11;98251.25;;;24.83;71.59
79481;BME280;68944;48.262;14.208;2023-09-19T13:14:41;98247.44;;;25.37;70.56
79481;BME280;68944;48.262;14.208;2023-09-19T13:17:05;98248.09;;;25.43;69.02
79481;BME280;68944;48.262;14.208;2023-09-19T13:19:49;98241.28;;;24.02;76.16
79481;BME280;68944;48.262;14.208;2023-09-19T13:25:24;98228.91;;;23.78;72.89
79481;BME280;68944;48.262;14.208;2023-09-19T13:27:55;98226.44;;;23.21;77.24
79481;BME280;68944;48.262;14.208;2023-09-19T13:30:31;98227.53;;;22.97;78.51
79481;BME280;68944;48.262;14.208;2023-09-19T13:33:08;98262.38;;;22.00;84.62
79481;BME280;68944;48.262;14.208;2023-09-19T13:35:35;98295.91;;;20.28;99.07
79481;BME280;68944;48.262;14.208;2023-09-19T13:38:03;98312.53;;;18.48;100.00
79481;BME280;68944;48.262;14.208;2023-09-19T13:40:29;98330.19;;;17.24;100.00